sensor_id;sensor_type;location;lat;lon;timestamp;P1;durP1;ratioP1;P2;durP2;ratioP2
18754;SDS011;35061;47.664;9.166;2022-10-17T00:01:00;6.82;;;3.35;;
18754;SDS011;35061;47.664;9.166;2022-10-17T00:03:28;3.60;;;3.30;;
18754;SDS011;35061;47.664;9.166;2022-10-17T04:21:25;26.50;;;4.00;;
18754;SDS011;35061;47.664;9.166;2022-10-17T04:23:55;19.35;;;3.95;;
18754;SDS011;35061;47.664;9.166;2022-10-17T04:26:24;27.60;;;4.53;;
18754;SDS011;35061;47.664;9.166;2022-10-17T04:28:52;17.75;;;3.72;;
18754;SDS011;35061;47.664;9.166;2022-10-17T04:31:20;15.80;;;3.80;;
18754;SDS011;35061;47.664;9.166;2022-10-17T04:33:48;13.98;;;3.92;;
18754;SDS011;35061;47.664;9.166;2022-10-17T04:36:17;14.00;;;3.80;;
18754;SDS011;35061;47.664;9.166;2022-10-17T04:38:46;14.87;;;3.80;;
18754;SDS011;35061;47.664;9.166;2022-10-17T04:41:15;36.67;;;5.30;;
18754;SDS011;35061;47.664;9.166;2022-10-17T04:43:44;11.23;;;3.37;;
18754;SDS011;35061;47.664;9.166;2022-10-17T04:46:16;9.13;;;3.30;;
18754;SDS011;35061;47.664;9.166;2022-10-17T04:48:44;14.32;;;3.92;;
18754;SDS011;35061;47.664;9.166;2022-10-17T04:51:13;14.35;;;3.85;;
18754;SDS011;35061;47.664;9.166;2022-10-17T04:53:47;6.70;;;3.15;;
18754;SDS011;35061;47.664;9.166;2022-10-17T04:56:15;13.68;;;3.58;;
18754;SDS011;35061;47.664;9.166;2022-10-17T04:58:45;16.30;;;3.87;;
18754;SDS011;35061;47.664;9.166;2022-10-17T05:01:14;11.57;;;3.22;;
18754;SDS011;35061;47.664;9.166;2022-10-17T05:03:46;14.43;;;3.87;;
18754;SDS011;35061;47.664;9.166;2022-10-17T05:06:15;47.47;;;5.80;;
18754;SDS011;35061;47.664;9.166;2022-10-17T05:08:44;19.25;;;3.72;;
18754;SDS011;35061;47.664;9.166;2022-10-17T05:11:20;23.27;;;4.10;;
18754;SDS011;35061;47.664;9.166;2022-10-17T05:13:51;18.12;;;3.67;;
18754;SDS011;35061;47.664;9.166;2022-10-17T05:16:24;16.58;;;3.55;;
18754;SDS011;35061;47.664;9.166;2022-10-17T05:18:53;19.20;;;4.18;;
18754;SDS011;35061;47.664;9.166;2022-10-17T05:21:23;44.08;;;5.47;;
18754;SDS011;35061;47.664;9.166;2022-10-17T05:23:52;19.48;;;4.37;;
18754;SDS011;35061;47.664;9.166;2022-10-17T05:26:21;29.65;;;4.50;;
18754;SDS011;35061;47.664;9.166;2022-10-17T05:28:49;16.35;;;3.80;;
18754;SDS011;35061;47.664;9.166;2022-10-17T05:31:18;24.45;;;3.80;;
18754;SDS011;35061;47.664;9.166;2022-10-17T05:33:46;28.75;;;4.12;;
18754;SDS011;35061;47.664;9.166;2022-10-17T05:36:14;26.08;;;4.62;;
18754;SDS011;35061;47.664;9.166;2022-10-17T05:38:42;8.23;;;3.12;;
18754;SDS011;35061;47.664;9.166;2022-10-17T05:41:09;16.77;;;4.00;;
18754;SDS011;35061;47.664;9.166;2022-10-17T05:43:37;7.87;;;3.40;;
18754;SDS011;35061;47.664;9.166;2022-10-17T05:46:05;17.37;;;4.45;;
18754;SDS011;35061;47.664;9.166;2022-10-17T05:48:33;23.80;;;4.97;;
18754;SDS011;35061;47.664;9.166;2022-10-17T05:51:05;31.02;;;5.12;;
18754;SDS011;35061;47.664;9.166;2022-10-17T05:53:37;31.92;;;5.22;;
18754;SDS011;35061;47.664;9.166;2022-10-17T05:56:07;34.83;;;5.25;;
18754;SDS011;35061;47.664;9.166;2022-10-17T05:58:40;13.32;;;3.97;;
18754;SDS011;35061;47.664;9.166;2022-10-17T06:01:16;37.75;;;6.82;;
18754;SDS011;35061;47.664;9.166;2022-10-17T06:03:45;11.70;;;4.00;;
18754;SDS011;35061;47.664;9.166;2022-10-17T06:06:13;20.88;;;4.78;;
18754;SDS011;35061;47.664;9.166;2022-10-17T06:08:41;29.52;;;4.95;;
18754;SDS011;35061;47.664;9.166;2022-10-17T06:11:09;13.77;;;4.05;;
18754;SDS011;35061;47.664;9.166;2022-10-17T06:13:38;14.60;;;3.87;;
18754;SDS011;35061;47.664;9.166;2022-10-17T06:16:07;19.90;;;5.12;;
18754;SDS011;35061;47.664;9.166;2022-10-17T06:18:35;10.18;;;4.30;;
18754;SDS011;35061;47.664;9.166;2022-10-17T06:21:03;24.73;;;5.35;;
18754;SDS011;35061;47.664;9.166;2022-10-17T06:23:33;9.55;;;4.15;;
18754;SDS011;35061;47.664;9.166;2022-10-17T06:26:01;21.70;;;4.35;;
18754;SDS011;35061;47.664;9.166;2022-10-17T06:28:31;6.22;;;4.15;;
18754;SDS011;35061;47.664;9.166;2022-10-17T06:31:02;15.50;;;4.65;;
18754;SDS011;35061;47.664;9.166;2022-10-17T06:33:34;19.20;;;5.53;;
18754;SDS011;35061;47.664;9.166;2022-10-17T06:36:02;12.35;;;4.57;;
18754;SDS011;35061;47.664;9.166;2022-10-17T06:38:32;17.87;;;4.53;;
18754;SDS011;35061;47.664;9.166;2022-10-17T06:41:04;17.35;;;4.10;;
18754;SDS011;35061;47.664;9.166;2022-10-17T06:43:41;30.12;;;4.35;;
18754;SDS011;35061;47.664;9.166;2022-10-17T06:46:12;28.62;;;4.95;;
18754;SDS011;35061;47.664;9.166;2022-10-17T06:48:41;16.52;;;3.90;;
18754;SDS011;35061;47.664;9.166;2022-10-17T06:51:09;22.08;;;4.37;;
18754;SDS011;35061;47.664;9.166;2022-10-17T06:53:38;11.48;;;3.45;;
18754;SDS011;35061;47.664;9.166;2022-10-17T06:56:07;14.50;;;3.90;;
18754;SDS011;35061;47.664;9.166;2022-10-17T06:58:36;9.88;;;3.85;;
18754;SDS011;35061;47.664;9.166;2022-10-17T07:01:06;29.98;;;4.20;;
18754;SDS011;35061;47.664;9.166;2022-10-17T07:03:38;19.23;;;4.70;;
18754;SDS011;35061;47.664;9.166;2022-10-17T07:06:07;19.52;;;4.50;;
18754;SDS011;35061;47.664;9.166;2022-10-17T07:08:40;16.25;;;4.35;;
18754;SDS011;35061;47.664;9.166;2022-10-17T07:11:10;17.70;;;4.25;;
18754;SDS011;35061;47.664;9.166;2022-10-17T07:13:42;12.95;;;4.10;;
18754;SDS011;35061;47.664;9.166;2022-10-17T07:16:10;15.82;;;3.90;;
18754;SDS011;35061;47.664;9.166;2022-10-17T07:18:39;33.35;;;4.70;;
18754;SDS011;35061;47.664;9.166;2022-10-17T07:21:07;35.80;;;5.00;;
18754;SDS011;35061;47.664;9.166;2022-10-17T07:23:35;19.25;;;4.07;;
18754;SDS011;35061;47.664;9.166;2022-10-17T07:26:04;16.08;;;4.12;;
18754;SDS011;35061;47.664;9.166;2022-10-17T07:28:37;19.25;;;3.97;;
18754;SDS011;35061;47.664;9.166;2022-10-17T07:31:10;54.45;;;5.07;;
18754;SDS011;35061;47.664;9.166;2022-10-17T07:33:39;29.83;;;4.82;;
18754;SDS011;35061;47.664;9.166;2022-10-17T07:36:08;34.63;;;4.80;;
18754;SDS011;35061;47.664;9.166;2022-10-17T07:38:35;34.72;;;4.97;;
18754;SDS011;35061;47.664;9.166;2022-10-17T07:41:04;34.50;;;5.20;;
18754;SDS011;35061;47.664;9.166;2022-10-17T07:43:34;12.50;;;4.40;;
18754;SDS011;35061;47.664;9.166;2022-10-17T07:46:05;20.05;;;5.07;;
18754;SDS011;35061;47.664;9.166;2022-10-17T07:48:32;11.55;;;4.82;;
18754;SDS011;35061;47.664;9.166;2022-10-17T07:51:01;10.15;;;4.37;;
18754;SDS011;35061;47.664;9.166;2022-10-17T07:53:29;22.10;;;5.60;;
18754;SDS011;35061;47.664;9.166;2022-10-17T07:55:57;15.05;;;4.07;;
18754;SDS011;35061;47.664;9.166;2022-10-17T07:58:25;13.90;;;4.43;;
18754;SDS011;35061;47.664;9.166;2022-10-17T08:00:54;9.85;;;4.32;;
18754;SDS011;35061;47.664;9.166;2022-10-17T08:03:28;16.65;;;4.32;;
18754;SDS011;35061;47.664;9.166;2022-10-17T08:05:56;13.02;;;4.05;;
18754;SDS011;35061;47.664;9.166;2022-10-17T08:08:25;4.15;;;3.33;;
18754;SDS011;35061;47.664;9.166;2022-10-17T08:10:54;7.40;;;3.85;;
18754;SDS011;35061;47.664;9.166;2022-10-17T08:13:22;5.70;;;3.78;;
18754;SDS011;35061;47.664;9.166;2022-10-17T08:15:50;5.32;;;4.00;;
18754;SDS011;35061;47.664;9.166;2022-10-17T08:18:17;15.27;;;4.68;;
18754;SDS011;35061;47.664;9.166;2022-10-17T08:20:45;18.12;;;4.20;;
18754;SDS011;35061;47.664;9.166;2022-10-17T08:23:14;23.98;;;5.20;;
18754;SDS011;35061;47.664;9.166;2022-10-17T08:25:42;9.82;;;4.35;;
18754;SDS011;35061;47.664;9.166;2022-10-17T08:28:10;14.85;;;4.40;;
18754;SDS011;35061;47.664;9.166;2022-10-17T08:30:37;8.15;;;3.53;;
18754;SDS011;35061;47.664;9.166;2022-10-17T08:33:05;10.32;;;4.28;;
18754;SDS011;35061;47.664;9.166;2022-10-17T08:35:33;9.73;;;3.87;;
18754;SDS011;35061;47.664;9.166;2022-10-17T08:38:00;7.40;;;4.70;;
18754;SDS011;35061;47.664;9.166;2022-10-17T08:40:29;7.37;;;4.70;;
18754;SDS011;35061;47.664;9.166;2022-10-17T08:43:15;6.50;;;4.12;;
18754;SDS011;35061;47.664;9.166;2022-10-17T08:46:01;6.78;;;4.72;;
18754;SDS011;35061;47.664;9.166;2022-10-17T08:48:32;14.27;;;4.72;;
18754;SDS011;35061;47.664;9.166;2022-10-17T08:53:49;10.80;;;4.45;;
18754;SDS011;35061;47.664;9.166;2022-10-17T08:56:24;6.22;;;4.10;;
18754;SDS011;35061;47.664;9.166;2022-10-17T08:59:16;5.72;;;4.32;;
18754;SDS011;35061;47.664;9.166;2022-10-17T09:07:10;10.23;;;4.82;;
18754;SDS011;35061;47.664;9.166;2022-10-17T09:12:34;11.82;;;5.05;;
18754;SDS011;35061;47.664;9.166;2022-10-17T09:15:10;25.67;;;5.78;;
18754;SDS011;35061;47.664;9.166;2022-10-17T09:20:45;19.70;;;7.20;;
18754;SDS011;35061;47.664;9.166;2022-10-17T09:23:21;10.77;;;5.30;;
18754;SDS011;35061;47.664;9.166;2022-10-17T09:25:53;12.55;;;5.25;;
18754;SDS011;35061;47.664;9.166;2022-10-17T09:28:32;8.63;;;4.75;;
18754;SDS011;35061;47.664;9.166;2022-10-17T09:31:03;10.90;;;5.22;;
18754;SDS011;35061;47.664;9.166;2022-10-17T09:33:41;6.45;;;4.47;;
18754;SDS011;35061;47.664;9.166;2022-10-17T09:36:33;9.63;;;5.28;;
18754;SDS011;35061;47.664;9.166;2022-10-17T09:39:04;8.68;;;5.10;;
18754;SDS011;35061;47.664;9.166;2022-10-17T09:41:39;6.72;;;4.90;;
18754;SDS011;35061;47.664;9.166;2022-10-17T09:49:36;4.82;;;4.40;;
18754;SDS011;35061;47.664;9.166;2022-10-17T09:52:09;6.03;;;5.12;;
18754;SDS011;35061;47.664;9.166;2022-10-17T09:57:19;6.18;;;5.10;;
18754;SDS011;35061;47.664;9.166;2022-10-17T09:59:58;5.95;;;5.30;;
18754;SDS011;35061;47.664;9.166;2022-10-17T10:02:28;6.18;;;5.40;;
18754;SDS011;35061;47.664;9.166;2022-10-17T10:05:05;7.05;;;5.90;;
18754;SDS011;35061;47.664;9.166;2022-10-17T10:07:42;5.03;;;4.53;;
18754;SDS011;35061;47.664;9.166;2022-10-17T10:10:27;5.53;;;4.95;;
18754;SDS011;35061;47.664;9.166;2022-10-17T10:15:43;5.53;;;5.03;;
18754;SDS011;35061;47.664;9.166;2022-10-17T10:23:36;5.85;;;4.95;;
18754;SDS011;35061;47.664;9.166;2022-10-17T10:26:20;5.45;;;4.87;;
18754;SDS011;35061;47.664;9.166;2022-10-17T10:28:54;6.93;;;5.95;;
18754;SDS011;35061;47.664;9.166;2022-10-17T10:31:33;6.85;;;5.62;;
18754;SDS011;35061;47.664;9.166;2022-10-17T10:34:15;5.80;;;5.20;;
18754;SDS011;35061;47.664;9.166;2022-10-17T10:39:25;5.90;;;5.30;;
18754;SDS011;35061;47.664;9.166;2022-10-17T10:41:58;6.55;;;5.70;;
18754;SDS011;35061;47.664;9.166;2022-10-17T10:44:28;5.97;;;5.37;;
18754;SDS011;35061;47.664;9.166;2022-10-17T10:47:32;5.43;;;4.93;;
18754;SDS011;35061;47.664;9.166;2022-10-17T10:50:08;6.45;;;5.10;;
18754;SDS011;35061;47.664;9.166;2022-10-17T10:56:17;6.25;;;5.25;;
18754;SDS011;35061;47.664;9.166;2022-10-17T10:58:57;6.57;;;4.57;;
18754;SDS011;35061;47.664;9.166;2022-10-17T11:06:45;5.47;;;4.95;;
18754;SDS011;35061;47.664;9.166;2022-10-17T11:20:47;4.60;;;3.80;;
18754;SDS011;35061;47.664;9.166;2022-10-17T11:25:58;8.88;;;6.87;;
18754;SDS011;35061;47.664;9.166;2022-10-17T11:28:29;8.27;;;6.30;;
18754;SDS011;35061;47.664;9.166;2022-10-17T11:31:02;5.03;;;4.53;;
18754;SDS011;35061;47.664;9.166;2022-10-17T11:33:48;5.60;;;4.40;;
18754;SDS011;35061;47.664;9.166;2022-10-17T11:36:25;4.65;;;4.20;;
18754;SDS011;35061;47.664;9.166;2022-10-17T11:39:01;4.10;;;3.47;;
18754;SDS011;35061;47.664;9.166;2022-10-17T11:41:36;4.78;;;3.45;;
18754;SDS011;35061;47.664;9.166;2022-10-17T11:53:32;5.65;;;4.25;;
18754;SDS011;35061;47.664;9.166;2022-10-17T11:56:10;4.57;;;3.80;;
18754;SDS011;35061;47.664;9.166;2022-10-17T11:58:52;6.53;;;4.40;;
18754;SDS011;35061;47.664;9.166;2022-10-17T12:01:40;4.62;;;4.12;;
18754;SDS011;35061;47.664;9.166;2022-10-17T12:09:54;4.60;;;4.15;;
18754;SDS011;35061;47.664;9.166;2022-10-17T12:12:33;4.30;;;3.95;;
18754;SDS011;35061;47.664;9.166;2022-10-17T12:17:44;6.22;;;3.75;;
18754;SDS011;35061;47.664;9.166;2022-10-17T12:22:47;4.43;;;4.03;;
18754;SDS011;35061;47.664;9.166;2022-10-17T12:26:06;5.15;;;3.53;;
18754;SDS011;35061;47.664;9.166;2022-10-17T12:28:25;5.53;;;3.90;;
18754;SDS011;35061;47.664;9.166;2022-10-17T12:30:55;4.10;;;3.80;;
18754;SDS011;35061;47.664;9.166;2022-10-17T12:33:30;4.05;;;3.15;;
18754;SDS011;35061;47.664;9.166;2022-10-17T12:49:20;4.90;;;2.92;;
18754;SDS011;35061;47.664;9.166;2022-10-17T12:57:59;5.18;;;3.58;;
18754;SDS011;35061;47.664;9.166;2022-10-17T13:00:33;5.72;;;4.10;;
18754;SDS011;35061;47.664;9.166;2022-10-17T13:03:31;4.20;;;3.67;;
18754;SDS011;35061;47.664;9.166;2022-10-17T13:06:02;4.50;;;4.00;;
18754;SDS011;35061;47.664;9.166;2022-10-17T13:08:33;5.30;;;4.62;;
18754;SDS011;35061;47.664;9.166;2022-10-17T13:11:05;6.10;;;4.90;;
18754;SDS011;35061;47.664;9.166;2022-10-17T13:13:41;5.32;;;4.10;;
18754;SDS011;35061;47.664;9.166;2022-10-17T13:18:58;6.10;;;4.57;;
18754;SDS011;35061;47.664;9.166;2022-10-17T13:21:27;5.72;;;4.82;;
18754;SDS011;35061;47.664;9.166;2022-10-17T13:23:55;6.97;;;4.47;;
18754;SDS011;35061;47.664;9.166;2022-10-17T13:26:24;4.12;;;3.20;;
18754;SDS011;35061;47.664;9.166;2022-10-17T13:29:10;4.65;;;4.25;;
18754;SDS011;35061;47.664;9.166;2022-10-17T13:31:40;4.82;;;4.12;;
18754;SDS011;35061;47.664;9.166;2022-10-17T13:34:17;5.87;;;4.57;;
18754;SDS011;35061;47.664;9.166;2022-10-17T13:36:47;5.37;;;4.65;;
18754;SDS011;35061;47.664;9.166;2022-10-17T13:39:18;4.15;;;3.85;;
18754;SDS011;35061;47.664;9.166;2022-10-17T13:42:18;4.87;;;4.32;;
18754;SDS011;35061;47.664;9.166;2022-10-17T13:44:53;6.45;;;4.18;;
18754;SDS011;35061;47.664;9.166;2022-10-17T13:47:31;4.60;;;4.10;;
18754;SDS011;35061;47.664;9.166;2022-10-17T13:50:02;5.32;;;4.47;;
18754;SDS011;35061;47.664;9.166;2022-10-17T13:52:46;4.90;;;4.40;;
18754;SDS011;35061;47.664;9.166;2022-10-17T13:55:15;4.93;;;4.28;;
18754;SDS011;35061;47.664;9.166;2022-10-17T13:57:46;3.12;;;2.75;;
18754;SDS011;35061;47.664;9.166;2022-10-17T14:00:17;3.45;;;3.10;;
18754;SDS011;35061;47.664;9.166;2022-10-17T14:02:47;4.78;;;4.07;;
18754;SDS011;35061;47.664;9.166;2022-10-17T14:05:19;5.18;;;4.45;;
18754;SDS011;35061;47.664;9.166;2022-10-17T14:07:50;5.12;;;4.62;;
18754;SDS011;35061;47.664;9.166;2022-10-17T14:10:43;6.40;;;5.12;;
18754;SDS011;35061;47.664;9.166;2022-10-17T14:13:21;6.32;;;3.95;;
18754;SDS011;35061;47.664;9.166;2022-10-17T14:15:52;4.82;;;4.43;;
18754;SDS011;35061;47.664;9.166;2022-10-17T14:18:26;5.35;;;4.45;;
18754;SDS011;35061;47.664;9.166;2022-10-17T14:21:01;5.07;;;4.57;;
18754;SDS011;35061;47.664;9.166;2022-10-17T14:23:51;4.53;;;4.10;;
18754;SDS011;35061;47.664;9.166;2022-10-17T14:26:48;3.78;;;2.97;;
18754;SDS011;35061;47.664;9.166;2022-10-17T14:29:22;5.43;;;4.40;;
18754;SDS011;35061;47.664;9.166;2022-10-17T14:32:01;5.25;;;4.03;;
18754;SDS011;35061;47.664;9.166;2022-10-17T14:34:38;8.73;;;4.85;;
18754;SDS011;35061;47.664;9.166;2022-10-17T14:37:08;4.15;;;3.50;;
18754;SDS011;35061;47.664;9.166;2022-10-17T14:39:37;4.10;;;3.75;;
18754;SDS011;35061;47.664;9.166;2022-10-17T14:42:05;5.40;;;4.03;;
18754;SDS011;35061;47.664;9.166;2022-10-17T14:44:33;5.10;;;4.28;;
18754;SDS011;35061;47.664;9.166;2022-10-17T14:47:03;5.15;;;3.75;;
18754;SDS011;35061;47.664;9.166;2022-10-17T14:50:03;5.72;;;4.32;;
18754;SDS011;35061;47.664;9.166;2022-10-17T14:55:29;4.97;;;4.07;;
18754;SDS011;35061;47.664;9.166;2022-10-17T14:57:59;7.60;;;4.80;;
18754;SDS011;35061;47.664;9.166;2022-10-17T15:00:27;4.50;;;3.87;;
18754;SDS011;35061;47.664;9.166;2022-10-17T15:02:55;4.32;;;3.67;;
18754;SDS011;35061;47.664;9.166;2022-10-17T15:05:23;5.82;;;4.37;;
18754;SDS011;35061;47.664;9.166;2022-10-17T15:07:51;6.30;;;4.00;;
18754;SDS011;35061;47.664;9.166;2022-10-17T15:10:23;5.12;;;3.25;;
18754;SDS011;35061;47.664;9.166;2022-10-17T15:12:59;4.97;;;3.40;;
18754;SDS011;35061;47.664;9.166;2022-10-17T15:15:48;4.15;;;3.75;;
18754;SDS011;35061;47.664;9.166;2022-10-17T15:18:18;5.20;;;3.80;;
18754;SDS011;35061;47.664;9.166;2022-10-17T15:20:45;4.47;;;4.18;;
18754;SDS011;35061;47.664;9.166;2022-10-17T15:23:29;4.70;;;3.25;;
18754;SDS011;35061;47.664;9.166;2022-10-17T15:25:57;4.10;;;2.90;;
18754;SDS011;35061;47.664;9.166;2022-10-17T15:28:25;4.37;;;3.25;;
18754;SDS011;35061;47.664;9.166;2022-10-17T15:30:53;4.72;;;4.28;;
18754;SDS011;35061;47.664;9.166;2022-10-17T15:33:21;5.05;;;3.65;;
18754;SDS011;35061;47.664;9.166;2022-10-17T15:35:48;5.05;;;3.80;;
18754;SDS011;35061;47.664;9.166;2022-10-17T15:38:17;5.37;;;3.33;;
18754;SDS011;35061;47.664;9.166;2022-10-17T15:40:45;4.75;;;3.50;;
18754;SDS011;35061;47.664;9.166;2022-10-17T15:43:17;4.40;;;3.92;;
18754;SDS011;35061;47.664;9.166;2022-10-17T15:45:45;5.30;;;3.90;;
18754;SDS011;35061;47.664;9.166;2022-10-17T15:48:17;4.28;;;3.87;;
18754;SDS011;35061;47.664;9.166;2022-10-17T15:50:48;3.12;;;2.50;;
18754;SDS011;35061;47.664;9.166;2022-10-17T15:53:16;8.05;;;4.53;;
18754;SDS011;35061;47.664;9.166;2022-10-17T15:55:44;7.37;;;4.90;;
18754;SDS011;35061;47.664;9.166;2022-10-17T15:58:15;4.95;;;4.15;;
18754;SDS011;35061;47.664;9.166;2022-10-17T16:00:45;4.43;;;4.03;;
18754;SDS011;35061;47.664;9.166;2022-10-17T16:03:13;3.97;;;2.90;;
18754;SDS011;35061;47.664;9.166;2022-10-17T16:05:41;4.25;;;2.95;;
18754;SDS011;35061;47.664;9.166;2022-10-17T16:08:09;3.00;;;2.72;;
18754;SDS011;35061;47.664;9.166;2022-10-17T16:10:37;4.10;;;3.72;;
18754;SDS011;35061;47.664;9.166;2022-10-17T16:13:09;4.32;;;3.03;;
18754;SDS011;35061;47.664;9.166;2022-10-17T16:15:44;3.83;;;3.05;;
18754;SDS011;35061;47.664;9.166;2022-10-17T16:18:11;3.47;;;2.92;;
18754;SDS011;35061;47.664;9.166;2022-10-17T16:20:39;4.97;;;3.60;;
18754;SDS011;35061;47.664;9.166;2022-10-17T16:23:09;2.97;;;2.65;;
18754;SDS011;35061;47.664;9.166;2022-10-17T16:25:38;4.65;;;2.47;;
18754;SDS011;35061;47.664;9.166;2022-10-17T16:28:07;2.53;;;2.33;;
18754;SDS011;35061;47.664;9.166;2022-10-17T16:30:37;3.62;;;2.28;;
18754;SDS011;35061;47.664;9.166;2022-10-17T16:33:08;5.65;;;3.33;;
18754;SDS011;35061;47.664;9.166;2022-10-17T16:35:37;4.87;;;4.40;;
18754;SDS011;35061;47.664;9.166;2022-10-17T16:38:05;6.10;;;5.05;;
18754;SDS011;35061;47.664;9.166;2022-10-17T16:40:33;5.25;;;4.32;;
18754;SDS011;35061;47.664;9.166;2022-10-17T16:43:04;6.70;;;5.10;;
18754;SDS011;35061;47.664;9.166;2022-10-17T16:45:32;6.12;;;5.05;;
18754;SDS011;35061;47.664;9.166;2022-10-17T16:48:00;6.12;;;3.95;;
18754;SDS011;35061;47.664;9.166;2022-10-17T16:50:28;4.70;;;3.30;;
18754;SDS011;35061;47.664;9.166;2022-10-17T16:52:57;5.75;;;4.15;;
18754;SDS011;35061;47.664;9.166;2022-10-17T16:55:25;3.22;;;2.92;;
18754;SDS011;35061;47.664;9.166;2022-10-17T16:57:53;4.15;;;3.75;;
18754;SDS011;35061;47.664;9.166;2022-10-17T17:00:20;4.97;;;4.40;;
18754;SDS011;35061;47.664;9.166;2022-10-17T17:02:48;5.37;;;4.53;;
18754;SDS011;35061;47.664;9.166;2022-10-17T17:05:16;6.95;;;5.50;;
18754;SDS011;35061;47.664;9.166;2022-10-17T17:07:44;4.72;;;4.25;;
18754;SDS011;35061;47.664;9.166;2022-10-17T17:10:14;4.28;;;3.85;;
18754;SDS011;35061;47.664;9.166;2022-10-17T17:12:41;8.02;;;4.75;;
18754;SDS011;35061;47.664;9.166;2022-10-17T17:15:09;5.18;;;4.53;;
18754;SDS011;35061;47.664;9.166;2022-10-17T17:17:37;6.78;;;5.20;;
18754;SDS011;35061;47.664;9.166;2022-10-17T17:20:21;6.60;;;6.00;;
18754;SDS011;35061;47.664;9.166;2022-10-17T17:22:48;6.28;;;5.68;;
18754;SDS011;35061;47.664;9.166;2022-10-17T17:25:18;6.37;;;5.10;;
18754;SDS011;35061;47.664;9.166;2022-10-17T17:27:45;9.90;;;4.32;;
18754;SDS011;35061;47.664;9.166;2022-10-17T17:30:13;5.25;;;4.55;;
18754;SDS011;35061;47.664;9.166;2022-10-17T17:32:41;5.00;;;4.50;;
18754;SDS011;35061;47.664;9.166;2022-10-17T17:35:09;5.20;;;4.57;;
18754;SDS011;35061;47.664;9.166;2022-10-17T17:37:36;6.43;;;5.10;;
18754;SDS011;35061;47.664;9.166;2022-10-17T17:40:04;5.97;;;5.28;;
18754;SDS011;35061;47.664;9.166;2022-10-17T17:42:32;7.45;;;5.43;;
18754;SDS011;35061;47.664;9.166;2022-10-17T17:45:00;6.68;;;5.45;;
18754;SDS011;35061;47.664;9.166;2022-10-17T17:47:28;5.90;;;5.18;;
18754;SDS011;35061;47.664;9.166;2022-10-17T17:49:56;9.43;;;6.25;;
18754;SDS011;35061;47.664;9.166;2022-10-17T17:52:23;18.15;;;7.53;;
18754;SDS011;35061;47.664;9.166;2022-10-17T17:54:51;8.98;;;7.37;;
18754;SDS011;35061;47.664;9.166;2022-10-17T17:57:19;8.60;;;7.60;;
18754;SDS011;35061;47.664;9.166;2022-10-17T17:59:47;9.57;;;7.18;;
18754;SDS011;35061;47.664;9.166;2022-10-17T18:02:16;7.80;;;6.80;;
18754;SDS011;35061;47.664;9.166;2022-10-17T18:04:43;8.38;;;7.18;;
18754;SDS011;35061;47.664;9.166;2022-10-17T18:07:11;10.18;;;8.38;;
18754;SDS011;35061;47.664;9.166;2022-10-17T18:09:39;8.27;;;7.05;;
18754;SDS011;35061;47.664;9.166;2022-10-17T18:12:06;9.40;;;8.27;;
18754;SDS011;35061;47.664;9.166;2022-10-17T18:14:34;10.23;;;7.68;;
18754;SDS011;35061;47.664;9.166;2022-10-17T18:17:02;11.07;;;9.35;;
18754;SDS011;35061;47.664;9.166;2022-10-17T18:19:29;10.38;;;9.27;;
18754;SDS011;35061;47.664;9.166;2022-10-17T18:21:57;8.93;;;7.22;;
18754;SDS011;35061;47.664;9.166;2022-10-17T18:24:25;9.70;;;7.78;;
18754;SDS011;35061;47.664;9.166;2022-10-17T18:26:52;7.75;;;5.78;;
18754;SDS011;35061;47.664;9.166;2022-10-17T18:29:25;8.20;;;6.30;;
18754;SDS011;35061;47.664;9.166;2022-10-17T18:31:54;11.00;;;7.18;;
18754;SDS011;35061;47.664;9.166;2022-10-17T18:34:22;9.02;;;6.78;;
18754;SDS011;35061;47.664;9.166;2022-10-17T18:36:49;8.48;;;6.40;;
18754;SDS011;35061;47.664;9.166;2022-10-17T18:39:19;9.18;;;6.95;;
18754;SDS011;35061;47.664;9.166;2022-10-17T18:41:46;9.95;;;7.30;;
18754;SDS011;35061;47.664;9.166;2022-10-17T18:44:14;7.72;;;6.82;;
18754;SDS011;35061;47.664;9.166;2022-10-17T18:46:43;12.48;;;6.78;;
18754;SDS011;35061;47.664;9.166;2022-10-17T18:49:16;9.25;;;6.57;;
18754;SDS011;35061;47.664;9.166;2022-10-17T18:51:45;12.13;;;6.75;;
18754;SDS011;35061;47.664;9.166;2022-10-17T18:54:17;10.07;;;7.05;;
18754;SDS011;35061;47.664;9.166;2022-10-17T18:56:51;10.07;;;6.28;;
18754;SDS011;35061;47.664;9.166;2022-10-17T18:59:20;11.35;;;6.72;;
18754;SDS011;35061;47.664;9.166;2022-10-17T19:01:48;10.95;;;6.22;;
18754;SDS011;35061;47.664;9.166;2022-10-17T19:04:15;10.02;;;6.68;;
18754;SDS011;35061;47.664;9.166;2022-10-17T19:06:43;10.63;;;5.40;;
18754;SDS011;35061;47.664;9.166;2022-10-17T19:09:12;13.48;;;6.35;;
18754;SDS011;35061;47.664;9.166;2022-10-17T19:11:40;11.73;;;6.90;;
18754;SDS011;35061;47.664;9.166;2022-10-17T19:14:09;11.63;;;6.32;;
18754;SDS011;35061;47.664;9.166;2022-10-17T19:16:46;9.82;;;7.00;;
18754;SDS011;35061;47.664;9.166;2022-10-17T19:19:16;10.30;;;6.80;;
18754;SDS011;35061;47.664;9.166;2022-10-17T19:21:46;9.90;;;6.57;;
18754;SDS011;35061;47.664;9.166;2022-10-17T19:24:19;8.85;;;6.20;;
18754;SDS011;35061;47.664;9.166;2022-10-17T19:26:49;9.70;;;7.05;;
18754;SDS011;35061;47.664;9.166;2022-10-17T19:29:20;7.37;;;6.53;;
18754;SDS011;35061;47.664;9.166;2022-10-17T19:31:49;11.65;;;7.30;;
18754;SDS011;35061;47.664;9.166;2022-10-17T19:34:18;11.02;;;6.97;;
18754;SDS011;35061;47.664;9.166;2022-10-17T19:36:46;8.60;;;7.05;;
18754;SDS011;35061;47.664;9.166;2022-10-17T19:39:15;9.25;;;6.65;;
18754;SDS011;35061;47.664;9.166;2022-10-17T19:41:45;8.30;;;6.78;;
18754;SDS011;35061;47.664;9.166;2022-10-17T19:44:14;7.22;;;6.47;;
18754;SDS011;35061;47.664;9.166;2022-10-17T19:46:42;11.00;;;6.68;;
18754;SDS011;35061;47.664;9.166;2022-10-17T19:49:15;11.48;;;8.13;;
18754;SDS011;35061;47.664;9.166;2022-10-17T19:51:44;12.50;;;8.80;;
18754;SDS011;35061;47.664;9.166;2022-10-17T19:54:12;9.02;;;7.60;;
18754;SDS011;35061;47.664;9.166;2022-10-17T19:56:41;11.80;;;6.75;;
18754;SDS011;35061;47.664;9.166;2022-10-17T19:59:10;9.10;;;7.43;;
18754;SDS011;35061;47.664;9.166;2022-10-17T20:01:40;9.48;;;7.32;;
18754;SDS011;35061;47.664;9.166;2022-10-17T20:04:08;9.57;;;7.07;;
18754;SDS011;35061;47.664;9.166;2022-10-17T20:06:37;9.00;;;6.95;;
18754;SDS011;35061;47.664;9.166;2022-10-17T20:09:06;9.18;;;7.43;;
18754;SDS011;35061;47.664;9.166;2022-10-17T20:11:41;10.02;;;6.97;;
18754;SDS011;35061;47.664;9.166;2022-10-17T20:14:09;7.87;;;6.60;;
18754;SDS011;35061;47.664;9.166;2022-10-17T20:16:37;9.57;;;6.53;;
18754;SDS011;35061;47.664;9.166;2022-10-17T20:19:06;7.57;;;6.78;;
18754;SDS011;35061;47.664;9.166;2022-10-17T20:21:36;7.55;;;6.75;;
18754;SDS011;35061;47.664;9.166;2022-10-17T20:24:06;10.95;;;7.78;;
18754;SDS011;35061;47.664;9.166;2022-10-17T20:26:37;9.52;;;7.60;;
18754;SDS011;35061;47.664;9.166;2022-10-17T20:29:07;8.43;;;7.45;;
18754;SDS011;35061;47.664;9.166;2022-10-17T20:31:39;9.35;;;7.70;;
18754;SDS011;35061;47.664;9.166;2022-10-17T20:34:08;11.63;;;7.32;;
18754;SDS011;35061;47.664;9.166;2022-10-17T20:36:39;9.63;;;7.55;;
18754;SDS011;35061;47.664;9.166;2022-10-17T20:39:08;8.80;;;6.05;;
18754;SDS011;35061;47.664;9.166;2022-10-17T20:41:38;10.95;;;5.68;;
18754;SDS011;35061;47.664;9.166;2022-10-17T20:44:07;9.35;;;6.72;;
18754;SDS011;35061;47.664;9.166;2022-10-17T20:46:35;9.07;;;6.82;;
18754;SDS011;35061;47.664;9.166;2022-10-17T20:49:14;8.23;;;6.05;;
18754;SDS011;35061;47.664;9.166;2022-10-17T20:51:44;6.68;;;5.95;;
18754;SDS011;35061;47.664;9.166;2022-10-17T20:54:12;8.27;;;5.87;;
18754;SDS011;35061;47.664;9.166;2022-10-17T20:56:40;7.37;;;5.95;;
18754;SDS011;35061;47.664;9.166;2022-10-17T20:59:11;6.72;;;6.00;;
18754;SDS011;35061;47.664;9.166;2022-10-17T21:01:42;7.55;;;6.12;;
18754;SDS011;35061;47.664;9.166;2022-10-17T21:04:11;9.23;;;6.32;;